createdAt,value
2023-04-03T00:02:23.975Z,7.18
2023-04-03T00:04:50.555Z,7.10
2023-04-03T00:07:17.024Z,7.21
2023-04-03T00:09:43.447Z,7.29
2023-04-03T00:12:09.932Z,7.18
2023-04-03T00:14:36.396Z,7.03
2023-04-03T00:17:02.981Z,7.13
2023-04-03T00:19:29.504Z,7.06
2023-04-03T00:21:56.691Z,7.09
2023-04-03T00:24:23.202Z,7.03
2023-04-03T00:26:49.655Z,7.05
2023-04-03T00:29:16.540Z,6.92
2023-04-03T00:31:43.059Z,6.91
2023-04-03T00:34:09.598Z,7.03
2023-04-03T00:36:36.365Z,6.96
2023-04-03T00:39:02.847Z,7.06
2023-04-03T00:41:29.348Z,7.18
2023-04-03T00:43:56.198Z,6.88
2023-04-03T00:46:22.660Z,7.20
2023-04-03T00:48:49.888Z,6.99
2023-04-03T00:51:21.966Z,6.94
2023-04-03T00:53:51.755Z,6.82
2023-04-03T00:56:20.677Z,6.82
2023-04-03T00:58:50.297Z,6.78
2023-04-03T01:01:19.634Z,6.77
2023-04-03T01:03:46.613Z,6.86
2023-04-03T01:06:17.231Z,6.72
2023-04-03T01:08:47.784Z,6.77
2023-04-03T01:11:14.293Z,6.58
2023-04-03T01:13:41.725Z,6.46
2023-04-03T01:16:08.712Z,6.63
2023-04-03T01:18:37.029Z,6.38
2023-04-03T01:21:12.916Z,6.44
2023-04-03T01:23:53.523Z,6.51
2023-04-03T01:26:20.014Z,6.50
2023-04-03T01:28:46.688Z,6.37
2023-04-03T01:31:21.464Z,6.50
2023-04-03T01:33:48.827Z,6.35
2023-04-03T01:36:17.326Z,6.32
2023-04-03T01:38:43.875Z,6.61
2023-04-03T01:41:10.597Z,6.32
2023-04-03T01:43:37.690Z,6.32
2023-04-03T01:46:04.485Z,6.24
2023-04-03T01:48:30.982Z,6.13
2023-04-03T01:50:57.499Z,6.21
2023-04-03T01:53:24.086Z,6.14
2023-04-03T01:55:50.820Z,6.14
2023-04-03T01:58:17.646Z,6.12
2023-04-03T02:00:44.396Z,6.16
2023-04-03T02:03:11.385Z,6.03
2023-04-03T02:05:38.599Z,6.04
2023-04-03T02:08:05.804Z,6.02
2023-04-03T02:10:32.380Z,6.09
2023-04-03T02:12:58.964Z,6.09
2023-04-03T02:15:25.781Z,6.02
2023-04-03T02:17:53.077Z,5.97
2023-04-03T02:20:20.685Z,6.01
2023-04-03T02:22:47.189Z,5.98
2023-04-03T02:25:13.857Z,5.93
2023-04-03T02:27:41.226Z,5.91
2023-04-03T02:30:07.911Z,5.91
2023-04-03T02:32:34.434Z,6.03
2023-04-03T02:35:02.781Z,5.89
2023-04-03T02:37:29.358Z,5.87
2023-04-03T02:39:56.254Z,5.91
2023-04-03T02:42:22.715Z,5.79
2023-04-03T02:44:49.220Z,5.83
2023-04-03T02:47:15.987Z,5.81
2023-04-03T02:49:44.611Z,5.69
2023-04-03T02:52:11.223Z,5.65
2023-04-03T02:54:38.492Z,5.78
2023-04-03T02:57:09.874Z,5.81
2023-04-03T02:59:37.112Z,5.76
2023-04-03T03:02:04.029Z,5.85
2023-04-03T03:04:30.581Z,5.87
2023-04-03T03:06:57.196Z,5.72
2023-04-03T03:09:23.730Z,5.61
2023-04-03T03:11:50.488Z,5.72
2023-04-03T03:14:16.983Z,5.82
2023-04-03T03:16:43.556Z,5.88
2023-04-03T03:19:10.170Z,5.71
2023-04-03T03:21:36.877Z,5.72
2023-04-03T03:24:03.857Z,5.64
2023-04-03T03:26:30.336Z,5.58
2023-04-03T03:28:56.900Z,5.65
2023-04-03T03:31:23.495Z,5.69
2023-04-03T03:33:50.102Z,5.68
2023-04-03T03:36:16.907Z,5.51
2023-04-03T03:38:43.486Z,5.54
2023-04-03T03:41:10.532Z,5.46
2023-04-03T03:43:37.413Z,5.61
2023-04-03T03:46:06.055Z,5.57
2023-04-03T03:48:32.652Z,5.54
2023-04-03T03:50:59.155Z,5.69
2023-04-03T03:53:30.378Z,5.74
2023-04-03T03:56:01.117Z,5.72
2023-04-03T03:58:29.889Z,5.72
2023-04-03T04:00:56.476Z,5.64
2023-04-03T04:03:23.203Z,5.80
2023-04-03T04:05:51.704Z,5.87
2023-04-03T04:08:18.360Z,5.84
2023-04-03T04:10:46.032Z,5.99
2023-04-03T04:13:14.881Z,6.00
2023-04-03T04:15:41.762Z,5.94
2023-04-03T04:18:08.655Z,6.07
2023-04-03T04:20:35.229Z,6.29
2023-04-03T04:23:02.186Z,6.40
2023-04-03T04:25:30.002Z,6.33
2023-04-03T04:27:56.557Z,6.21
2023-04-03T04:30:23.062Z,6.31
2023-04-03T04:32:50.776Z,6.38
2023-04-03T04:35:17.927Z,6.06
2023-04-03T04:37:47.222Z,6.12
2023-04-03T04:40:14.054Z,5.90
2023-04-03T04:42:41.085Z,6.05
2023-04-03T04:45:08.515Z,6.03
2023-04-03T04:47:36.496Z,6.08
2023-04-03T04:50:03.260Z,6.32
2023-04-03T04:52:31.690Z,6.15
2023-04-03T04:54:58.250Z,6.16
2023-04-03T04:57:25.247Z,6.26
2023-04-03T04:59:51.967Z,6.35
2023-04-03T05:02:18.695Z,6.35
2023-04-03T05:04:45.930Z,6.33
2023-04-03T05:07:18.870Z,6.41
2023-04-03T05:09:45.463Z,6.40
2023-04-03T05:12:13.924Z,6.43
2023-04-03T05:14:47.073Z,6.41
2023-04-03T05:17:13.928Z,6.41
2023-04-03T05:19:44.478Z,6.35
2023-04-03T05:22:12.232Z,6.32
2023-04-03T05:24:38.779Z,6.28
2023-04-03T05:27:06.162Z,6.52
2023-04-03T05:29:36.383Z,6.59
2023-04-03T05:32:04.311Z,6.43
2023-04-03T05:34:30.908Z,6.23
2023-04-03T05:36:57.657Z,6.37
2023-04-03T05:39:26.465Z,6.34
2023-04-03T05:41:53.020Z,6.57
2023-04-03T05:44:19.535Z,6.53
2023-04-03T05:46:47.585Z,6.66
2023-04-03T05:49:14.520Z,6.89
2023-04-03T05:51:41.324Z,6.97
2023-04-03T05:54:19.127Z,7.16
2023-04-03T05:56:46.252Z,6.92
2023-04-03T05:59:13.107Z,6.96
2023-04-03T06:01:40.160Z,7.00
2023-04-03T06:04:10.003Z,6.92
2023-04-03T06:06:48.400Z,7.05
2023-04-03T06:09:16.350Z,7.18
2023-04-03T06:11:44.098Z,7.06
2023-04-03T06:14:10.715Z,7.10
2023-04-03T06:16:39.618Z,7.14
2023-04-03T06:19:10.758Z,7.37
2023-04-03T06:21:40.569Z,7.40
2023-04-03T06:24:08.313Z,7.46
2023-04-03T06:26:35.347Z,7.55
2023-04-03T06:29:02.674Z,7.59
2023-04-03T06:31:29.229Z,7.92
2023-04-03T06:33:56.254Z,7.74
2023-04-03T06:36:22.932Z,7.71
2023-04-03T06:38:49.863Z,7.39
2023-04-03T06:41:17.385Z,7.53
2023-04-03T06:43:47.129Z,7.80
2023-04-03T06:46:17.564Z,8.34
2023-04-03T06:48:44.705Z,9.39
2023-04-03T06:51:22.252Z,10.40
2023-04-03T06:53:51.580Z,10.85
2023-04-03T06:56:18.434Z,11.04
2023-04-03T06:58:45.936Z,11.50
2023-04-03T07:01:13.388Z,10.25
2023-04-03T07:03:40.023Z,9.41
2023-04-03T07:06:07.943Z,9.25
2023-04-03T07:08:35.046Z,8.64
2023-04-03T07:11:01.525Z,8.44
2023-04-03T07:13:27.966Z,8.23
2023-04-03T07:15:54.585Z,8.30
2023-04-03T07:18:22.274Z,8.25
2023-04-03T07:20:49.000Z,7.57
2023-04-03T07:23:15.983Z,7.87
2023-04-03T07:25:47.205Z,7.47
2023-04-03T07:28:14.204Z,7.62
2023-04-03T07:30:54.005Z,7.58
2023-04-03T07:33:22.210Z,7.10
2023-04-03T07:35:48.832Z,7.29
2023-04-03T07:38:15.343Z,7.33
2023-04-03T07:40:46.432Z,7.32
2023-04-03T07:43:13.032Z,7.48
2023-04-03T07:45:39.797Z,7.75
2023-04-03T07:48:06.645Z,7.95
2023-04-03T07:50:33.417Z,8.16
2023-04-03T07:53:00.111Z,8.19
2023-04-03T07:55:26.796Z,8.48
2023-04-03T07:57:53.266Z,8.39
2023-04-03T08:00:20.691Z,8.28
2023-04-03T08:02:52.564Z,8.06
2023-04-03T08:05:20.088Z,8.00
2023-04-03T08:07:47.516Z,8.19
2023-04-03T08:10:15.159Z,8.30
2023-04-03T08:12:41.780Z,8.40
2023-04-03T08:15:09.251Z,8.59
2023-04-03T08:17:35.784Z,8.73
2023-04-03T08:20:02.741Z,8.58
2023-04-03T08:22:29.211Z,8.34
2023-04-03T08:24:59.381Z,8.70
2023-04-03T08:27:28.269Z,8.66
2023-04-03T08:29:55.482Z,8.92
2023-04-03T08:32:21.976Z,9.06
2023-04-03T08:34:48.582Z,9.09
2023-04-03T08:37:17.005Z,8.93
2023-04-03T08:39:44.311Z,9.03
2023-04-03T08:42:34.132Z,9.10
2023-04-03T08:45:01.198Z,9.03
2023-04-03T08:47:38.913Z,9.23
2023-04-03T08:50:10.918Z,9.36
2023-04-03T08:52:40.558Z,9.14
2023-04-03T08:55:25.545Z,9.15
2023-04-03T08:57:55.383Z,9.56
2023-04-03T09:00:24.139Z,9.23
2023-04-03T09:02:52.094Z,9.50
2023-04-03T09:05:31.135Z,9.55
2023-04-03T09:08:01.698Z,9.40
2023-04-03T09:10:29.882Z,9.57
2023-04-03T09:13:02.375Z,9.87
2023-04-03T09:15:38.259Z,9.77
2023-04-03T09:18:21.760Z,9.46
2023-04-03T09:20:57.802Z,9.36
2023-04-03T09:23:37.628Z,9.55
2023-04-03T09:26:07.463Z,9.53
2023-04-03T09:28:42.911Z,9.70
2023-04-03T09:31:19.704Z,9.50
2023-04-03T09:33:47.443Z,9.65
2023-04-03T09:36:14.389Z,10.03
2023-04-03T09:38:40.832Z,10.24
2023-04-03T09:41:08.576Z,10.13
2023-04-03T09:43:39.609Z,9.99
2023-04-03T09:46:21.052Z,10.05
2023-04-03T09:49:07.306Z,10.11
2023-04-03T09:51:35.238Z,10.51
2023-04-03T09:54:22.115Z,10.44
2023-04-03T09:56:52.578Z,10.44
2023-04-03T09:59:19.262Z,11.12
2023-04-03T10:01:58.586Z,10.77
2023-04-03T10:04:25.428Z,11.55
2023-04-03T10:06:53.647Z,12.73
2023-04-03T10:09:22.221Z,12.26
2023-04-03T10:12:02.236Z,11.34
2023-04-03T10:14:29.750Z,11.91
2023-04-03T10:17:00.660Z,14.05
2023-04-03T10:19:57.285Z,11.92
2023-04-03T10:22:42.805Z,11.92
2023-04-03T10:25:31.797Z,12.36
2023-04-03T10:28:13.592Z,12.58
2023-04-03T10:30:58.948Z,11.81
2023-04-03T10:33:25.632Z,12.56
2023-04-03T10:36:12.873Z,12.35
2023-04-03T10:38:42.504Z,11.65
2023-04-03T10:41:18.359Z,11.77
2023-04-03T10:44:01.032Z,12.89
2023-04-03T10:46:36.657Z,12.28
2023-04-03T10:49:26.650Z,12.51
2023-04-03T10:52:00.553Z,11.86
2023-04-03T10:54:47.249Z,11.79
2023-04-03T10:57:14.292Z,11.76
2023-04-03T10:59:58.963Z,11.71
2023-04-03T11:02:30.823Z,11.21
2023-04-03T11:05:03.537Z,11.07
2023-04-03T11:07:39.540Z,12.29
2023-04-03T11:10:15.465Z,12.88
2023-04-03T11:12:48.110Z,14.40
2023-04-03T11:15:17.515Z,15.64
2023-04-03T11:17:55.794Z,16.32
2023-04-03T11:20:35.567Z,16.69
2023-04-03T11:23:04.942Z,17.63
2023-04-03T11:25:34.167Z,16.44
2023-04-03T11:28:04.798Z,17.12
2023-04-03T11:30:40.117Z,16.14
2023-04-03T11:33:21.789Z,14.38
2023-04-03T11:35:49.648Z,15.08
2023-04-03T11:38:27.539Z,13.61
2023-04-03T11:40:56.225Z,13.64
2023-04-03T11:43:31.390Z,15.36
2023-04-03T11:46:05.127Z,15.63
2023-04-03T11:48:34.639Z,17.33
2023-04-03T11:51:01.935Z,15.40
2023-04-03T11:53:28.777Z,15.57
2023-04-03T11:55:56.631Z,15.66
2023-04-03T11:58:24.589Z,16.24
2023-04-03T12:00:56.184Z,16.86
2023-04-03T12:03:25.869Z,15.96
2023-04-03T12:05:55.657Z,14.41
2023-04-03T12:08:30.366Z,13.66
2023-04-03T12:11:15.571Z,14.30
2023-04-03T12:13:57.470Z,13.07
2023-04-03T12:16:39.305Z,14.18
2023-04-03T12:19:15.202Z,14.32
2023-04-03T12:21:44.784Z,15.29
2023-04-03T12:24:11.676Z,16.07
2023-04-03T12:26:48.209Z,17.94
2023-04-03T12:29:24.638Z,17.08
2023-04-03T12:32:11.531Z,17.41
2023-04-03T12:34:57.402Z,18.05
2023-04-03T12:37:42.688Z,17.38
2023-04-03T12:40:09.199Z,16.27
2023-04-03T12:43:04.318Z,16.97
2023-04-03T12:45:41.046Z,17.87
2023-04-03T12:48:13.306Z,16.64
2023-04-03T12:50:41.803Z,14.52
2023-04-03T12:53:13.587Z,14.85
2023-04-03T12:55:40.504Z,15.72
2023-04-03T12:58:18.230Z,15.04
2023-04-03T13:00:44.812Z,13.48
2023-04-03T13:03:22.626Z,14.02
2023-04-03T13:05:49.499Z,14.26
2023-04-03T13:08:23.459Z,15.46
2023-04-03T13:10:55.837Z,16.07
2023-04-03T13:13:24.057Z,15.52
2023-04-03T13:15:51.500Z,13.83
2023-04-03T13:18:34.697Z,16.00
2023-04-03T13:21:05.933Z,15.53
2023-04-03T13:23:33.832Z,16.51
2023-04-03T13:26:04.482Z,15.17
2023-04-03T13:28:32.217Z,14.05
2023-04-03T13:31:02.820Z,15.32
2023-04-03T13:33:32.703Z,13.59
2023-04-03T13:36:02.948Z,13.06
2023-04-03T13:38:33.870Z,12.42
2023-04-03T13:41:03.531Z,11.88
2023-04-03T13:43:37.225Z,11.62
2023-04-03T13:46:24.042Z,12.90
2023-04-03T13:48:52.468Z,13.17
2023-04-03T13:51:21.985Z,12.61
2023-04-03T13:53:50.388Z,11.85
2023-04-03T13:56:21.608Z,12.44
2023-04-03T13:59:14.533Z,12.60
2023-04-03T14:01:44.069Z,13.72
2023-04-03T14:04:12.958Z,13.89
2023-04-03T14:06:39.554Z,14.54
2023-04-03T14:09:06.381Z,14.67
2023-04-03T14:11:32.855Z,14.59
2023-04-03T14:14:02.869Z,15.77
2023-04-03T14:16:31.864Z,14.35
2023-04-03T14:18:58.354Z,14.75
2023-04-03T14:21:24.857Z,15.70
2023-04-03T14:23:52.258Z,15.04
2023-04-03T14:26:21.381Z,14.94
2023-04-03T14:28:49.815Z,14.78
2023-04-03T14:31:17.023Z,14.47
2023-04-03T14:33:43.572Z,14.22
2023-04-03T14:36:12.987Z,14.44
2023-04-03T14:38:39.542Z,15.18
2023-04-03T14:41:15.622Z,15.25
2023-04-03T14:43:43.354Z,13.27
2023-04-03T14:46:13.639Z,12.57
2023-04-03T14:48:40.471Z,13.16
2023-04-03T14:51:07.000Z,13.69
2023-04-03T14:53:38.832Z,13.74
2023-04-03T14:56:11.891Z,13.51
2023-04-03T14:58:38.694Z,13.29
2023-04-03T15:01:05.313Z,14.10
2023-04-03T15:03:31.985Z,14.47
2023-04-03T15:05:59.700Z,14.03
2023-04-03T15:08:30.160Z,13.29
2023-04-03T15:10:57.200Z,13.38
2023-04-03T15:13:24.876Z,13.61
2023-04-03T15:15:52.033Z,13.78
2023-04-03T15:18:28.442Z,14.00
2023-04-03T15:20:56.253Z,13.46
2023-04-03T15:23:26.831Z,13.80
2023-04-03T15:25:54.391Z,13.31
2023-04-03T15:28:24.398Z,12.81
2023-04-03T15:30:51.093Z,13.36
2023-04-03T15:33:17.745Z,13.06
2023-04-03T15:35:44.377Z,13.47
2023-04-03T15:38:11.426Z,12.85
2023-04-03T15:40:38.180Z,12.85
2023-04-03T15:43:05.504Z,12.38
2023-04-03T15:45:32.840Z,12.42
2023-04-03T15:47:59.585Z,12.35
2023-04-03T15:50:26.431Z,11.98
2023-04-03T15:52:55.411Z,12.11
2023-04-03T15:55:23.401Z,11.27
2023-04-03T15:57:50.266Z,11.66
2023-04-03T16:00:17.327Z,10.86
2023-04-03T16:02:47.806Z,10.57
2023-04-03T16:05:16.333Z,10.78
2023-04-03T16:07:42.792Z,10.84
2023-04-03T16:10:09.824Z,10.44
2023-04-03T16:12:36.819Z,10.81
2023-04-03T16:15:04.212Z,10.42
2023-04-03T16:17:32.261Z,9.96
2023-04-03T16:19:59.743Z,9.51
2023-04-03T16:22:27.121Z,9.64
2023-04-03T16:24:54.081Z,9.66
2023-04-03T16:27:20.900Z,9.37
2023-04-03T16:29:47.363Z,9.30
2023-04-03T16:32:14.518Z,9.13
2023-04-03T16:34:41.997Z,8.93
2023-04-03T16:37:09.486Z,8.88
2023-04-03T16:39:36.452Z,8.83
2023-04-03T16:42:03.571Z,8.67
2023-04-03T16:44:30.254Z,8.43
2023-04-03T16:46:57.876Z,8.43
2023-04-03T16:49:24.470Z,7.84
2023-04-03T16:51:51.049Z,8.11
2023-04-03T16:54:17.528Z,7.76
2023-04-03T16:56:44.045Z,7.83
2023-04-03T16:59:10.671Z,7.47
2023-04-03T17:01:37.228Z,7.30
2023-04-03T17:04:03.797Z,7.61
2023-04-03T17:06:30.395Z,7.17
2023-04-03T17:08:56.837Z,7.01
2023-04-03T17:11:27.057Z,6.88
2023-04-03T17:13:53.531Z,6.99
2023-04-03T17:16:20.118Z,6.73
2023-04-03T17:18:47.909Z,6.70
2023-04-03T17:21:15.053Z,6.54
2023-04-03T17:23:43.589Z,6.37
2023-04-03T17:26:10.087Z,6.33
2023-04-03T17:28:36.878Z,6.44
2023-04-03T17:31:03.838Z,6.26
2023-04-03T17:33:33.282Z,6.54
2023-04-03T17:36:01.504Z,6.25
2023-04-03T17:38:28.354Z,6.27
2023-04-03T17:40:58.679Z,6.19
2023-04-03T17:43:25.993Z,6.04
2023-04-03T17:45:52.906Z,6.03
2023-04-03T17:48:19.501Z,5.96
2023-04-03T17:50:46.262Z,5.91
2023-04-03T17:53:13.064Z,5.77
2023-04-03T17:55:40.124Z,5.79
2023-04-03T17:58:06.789Z,5.79
2023-04-03T18:00:33.263Z,5.44
2023-04-03T18:02:59.763Z,5.48
2023-04-03T18:05:29.574Z,5.56
2023-04-03T18:07:58.044Z,5.59
2023-04-03T18:10:25.004Z,5.48
2023-04-03T18:12:53.096Z,5.56
2023-04-03T18:15:19.784Z,5.43
2023-04-03T18:17:47.188Z,5.28
2023-04-03T18:20:15.163Z,5.23
2023-04-03T18:22:41.836Z,5.33
2023-04-03T18:25:11.254Z,5.39
2023-04-03T18:27:37.817Z,5.23
2023-04-03T18:30:09.075Z,5.26
2023-04-03T18:32:36.069Z,5.20
2023-04-03T18:35:02.961Z,5.14
2023-04-03T18:37:30.063Z,5.16
2023-04-03T18:39:56.727Z,5.15
2023-04-03T18:42:24.864Z,5.17
2023-04-03T18:44:53.509Z,5.12
2023-04-03T18:47:19.991Z,5.01
2023-04-03T18:49:46.669Z,5.00
2023-04-03T18:52:13.179Z,5.01
2023-04-03T18:54:40.911Z,5.03
2023-04-03T18:57:07.366Z,4.94
2023-04-03T18:59:34.089Z,4.89
2023-04-03T19:02:00.873Z,4.84
2023-04-03T19:04:28.660Z,4.93
2023-04-03T19:06:55.222Z,4.72
2023-04-03T19:09:21.983Z,4.81
2023-04-03T19:11:48.427Z,4.91
2023-04-03T19:14:17.005Z,4.74
2023-04-03T19:16:44.629Z,4.78
2023-04-03T19:19:11.564Z,4.90
2023-04-03T19:21:41.128Z,4.70
2023-04-03T19:24:08.922Z,4.71
2023-04-03T19:26:35.442Z,4.72
2023-04-03T19:29:01.974Z,4.62
2023-04-03T19:34:00.389Z,4.51
2023-04-03T19:36:27.010Z,4.83
2023-04-03T19:38:53.911Z,4.64
2023-04-03T19:41:25.117Z,4.56
2023-04-03T19:43:52.600Z,4.44
2023-04-03T19:46:19.271Z,4.46
2023-04-03T19:48:47.355Z,4.34
2023-04-03T19:51:13.996Z,4.30
2023-04-03T19:53:40.500Z,4.28
2023-04-03T19:56:07.068Z,4.31
2023-04-03T19:58:34.144Z,4.50
2023-04-03T20:01:00.858Z,4.39
2023-04-03T20:03:27.372Z,4.37
2023-04-03T20:05:54.403Z,4.30
2023-04-03T20:08:20.980Z,4.14
2023-04-03T20:10:47.640Z,4.27
2023-04-03T20:13:14.481Z,4.20
2023-04-03T20:15:41.992Z,4.09
2023-04-03T20:18:09.853Z,4.10
2023-04-03T20:20:42.045Z,4.01
2023-04-03T20:23:11.428Z,4.08
2023-04-03T20:25:50.601Z,4.21
2023-04-03T20:28:21.399Z,4.10
2023-04-03T20:30:50.721Z,4.06
2023-04-03T20:33:18.842Z,3.99
2023-04-03T20:35:46.938Z,3.92
2023-04-03T20:38:13.571Z,3.94
2023-04-03T20:40:40.226Z,3.89
2023-04-03T20:43:07.256Z,3.86
2023-04-03T20:45:34.763Z,3.90
2023-04-03T20:48:03.517Z,3.83
2023-04-03T20:50:30.822Z,3.76
2023-04-03T20:53:00.513Z,3.90
2023-04-03T20:55:27.136Z,3.71
2023-04-03T20:57:58.296Z,3.72
2023-04-03T21:00:25.227Z,3.76
2023-04-03T21:02:51.840Z,3.71
2023-04-03T21:05:18.587Z,3.78
2023-04-03T21:08:04.422Z,3.78
2023-04-03T21:10:49.548Z,3.66
2023-04-03T21:13:34.942Z,3.60
2023-04-03T21:16:02.294Z,3.55
2023-04-03T21:18:34.368Z,3.60
2023-04-03T21:21:01.586Z,3.65
2023-04-03T21:23:29.115Z,3.52
2023-04-03T21:25:55.914Z,3.52
2023-04-03T21:28:24.638Z,3.56
2023-04-03T21:30:51.166Z,3.65
2023-04-03T21:33:17.714Z,3.55
2023-04-03T21:35:44.195Z,3.48
2023-04-03T21:38:11.266Z,3.50
2023-04-03T21:40:37.751Z,3.61
2023-04-03T21:43:05.552Z,3.37
2023-04-03T21:45:32.032Z,3.38
2023-04-03T21:47:59.211Z,3.72
2023-04-03T21:50:25.767Z,3.73
2023-04-03T21:52:56.453Z,3.55
2023-04-03T21:55:23.468Z,3.41
2023-04-03T21:57:53.685Z,3.42
2023-04-03T22:00:20.883Z,3.65
2023-04-03T22:02:48.306Z,3.50
2023-04-03T22:05:14.872Z,3.45
2023-04-03T22:07:43.884Z,3.39
2023-04-03T22:10:10.385Z,3.50
2023-04-03T22:12:37.446Z,3.40
2023-04-03T22:15:04.186Z,3.44
2023-04-03T22:17:31.478Z,3.41
2023-04-03T22:19:57.975Z,3.32
2023-04-03T22:22:24.885Z,3.34
2023-04-03T22:24:52.283Z,3.25
2023-04-03T22:27:18.826Z,3.42
2023-04-03T22:29:45.456Z,3.34
2023-04-03T22:32:11.898Z,3.46
2023-04-03T22:34:39.620Z,3.41
2023-04-03T22:37:06.484Z,3.31
2023-04-03T22:39:33.309Z,3.19
2023-04-03T22:42:01.596Z,2.96
2023-04-03T22:44:35.015Z,3.14
2023-04-03T22:47:02.921Z,3.04
2023-04-03T22:49:29.406Z,3.11
2023-04-03T22:51:55.878Z,3.08
2023-04-03T22:54:22.437Z,3.01
2023-04-03T22:56:49.544Z,2.99
2023-04-03T22:59:16.270Z,2.91
2023-04-03T23:01:42.874Z,2.88
2023-04-03T23:04:09.435Z,3.05
2023-04-03T23:06:36.014Z,2.76
2023-04-03T23:09:02.611Z,2.97
2023-04-03T23:11:29.116Z,2.93
2023-04-03T23:13:55.610Z,2.97
2023-04-03T23:16:22.163Z,2.86
2023-04-03T23:18:50.022Z,3.32
2023-04-03T23:21:16.611Z,2.89
2023-04-03T23:23:43.061Z,2.88
2023-04-03T23:26:09.670Z,2.60
2023-04-03T23:28:36.791Z,2.73
2023-04-03T23:31:06.577Z,2.69
2023-04-03T23:33:33.443Z,2.57
2023-04-03T23:36:01.213Z,2.61
2023-04-03T23:38:27.866Z,2.60
2023-04-03T23:40:54.344Z,2.46
2023-04-03T23:43:21.115Z,2.45
2023-04-03T23:45:47.807Z,2.56
2023-04-03T23:48:14.369Z,2.49
2023-04-03T23:50:42.554Z,2.28
2023-04-03T23:53:09.431Z,2.41
2023-04-03T23:55:35.900Z,2.35
2023-04-03T23:58:02.685Z,2.34
